Time;durP1;ratioP1;P1;durP2;ratioP2;P2;SDS_P1;SDS_P2;PMS_P1;PMS_P2;Temp;Humidity;BMP_temperature;BMP_pressure;BME280_temperature;BME280_humidity;BME280_pressure;Samples;Min_cycle;Max_cycle;Signal;HPM_P1;HPM_P2
2022/03/14 00:00:56;;;;;;;0.20;0.10;;;11.70;99.90;;;;;;21046050;28;20216;-67
2022/03/14 00:11:01;;;;;;;0.20;0.10;;;11.70;99.90;;;;;;21048905;28;20193;-67
2022/03/14 00:21:10;;;;;;;0.20;0.10;;;11.50;99.90;;;;;;21049524;28;20228;-68
2022/03/14 00:31:14;;;;;;;0.20;0.10;;;11.50;99.90;;;;;;21049570;28;20213;-66
2022/03/14 00:41:20;;;;;;;0.20;0.07;;;11.00;99.90;;;;;;21046375;28;20229;-67
2022/03/14 00:51:24;;;;;;;0.20;0.10;;;11.50;99.90;;;;;;21031348;28;20197;-67
2022/03/14 01:01:29;;;;;;;0.20;0.10;;;12.10;99.90;;;;;;21032265;28;20235;-77
2022/03/14 01:11:33;;;;;;;0.20;0.10;;;12.50;99.90;;;;;;21050165;28;20280;-77
2022/03/14 01:21:39;;;;;;;0.20;0.10;;;12.60;99.90;;;;;;21042165;28;20225;-79
2022/03/14 01:31:43;;;;;;;0.20;0.10;;;12.60;99.90;;;;;;21047665;28;20216;-78
2022/03/14 01:41:48;;;;;;;0.20;0.00;;;12.70;99.90;;;;;;21029702;28;20251;-78
2022/03/14 01:51:52;;;;;;;0.20;0.10;;;12.60;99.90;;;;;;21044202;28;20289;-68
2022/03/14 02:01:57;;;;;;;0.20;0.00;;;12.50;99.90;;;;;;21039815;28;20543;-69
2022/03/14 02:12:09;;;;;;;0.20;0.10;;;12.40;99.90;;;;;;21045915;28;20200;-68
2022/03/14 02:22:15;;;;;;;0.20;0.10;;;12.30;99.90;;;;;;21046624;28;20231;-69
2022/03/14 02:32:19;;;;;;;0.20;0.10;;;12.40;99.90;;;;;;21058629;28;20204;-83
2022/03/14 02:42:26;;;;;;;0.20;0.10;;;12.40;99.90;;;;;;21061334;28;20243;-81
2022/03/14 02:52:32;;;;;;;0.20;0.10;;;12.50;99.90;;;;;;21060708;28;20279;-66
2022/03/14 03:02:37;;;;;;;0.20;0.10;;;12.50;99.90;;;;;;21058114;28;20220;-66
2022/03/14 03:12:41;;;;;;;0.20;0.10;;;12.40;99.90;;;;;;21050621;28;20475;-66
2022/03/14 03:22:47;;;;;;;0.20;0.10;;;12.20;99.90;;;;;;21055804;28;20240;-67
2022/03/14 03:32:50;;;;;;;0.20;0.10;;;12.30;99.90;;;;;;21056653;28;20216;-66
2022/03/14 03:42:55;;;;;;;0.20;0.10;;;12.40;99.90;;;;;;21054798;28;20252;-67
2022/03/14 03:52:59;;;;;;;0.20;0.10;;;12.40;99.90;;;;;;21055221;28;20204;-65
2022/03/14 04:03:04;;;;;;;0.20;0.03;;;12.40;99.90;;;;;;21052597;28;20232;-67
2022/03/14 04:13:09;;;;;;;0.20;0.10;;;12.40;99.90;;;;;;21051296;28;20196;-67
2022/03/14 04:23:17;;;;;;;0.20;0.10;;;12.50;99.90;;;;;;21052203;28;20216;-67
2022/03/14 04:33:21;;;;;;;0.20;0.03;;;12.50;99.90;;;;;;21034935;28;20212;-66
2022/03/14 04:43:26;;;;;;;0.20;0.10;;;12.50;99.90;;;;;;21050836;28;20407;-67
2022/03/14 04:53:30;;;;;;;0.20;0.10;;;12.50;99.90;;;;;;21046012;28;20481;-67
2022/03/14 05:03:35;;;;;;;0.20;0.10;;;12.40;99.90;;;;;;21029953;28;20239;-67
2022/03/14 05:13:39;;;;;;;0.20;0.10;;;12.50;99.90;;;;;;21048624;28;20189;-67
2022/03/14 05:23:44;;;;;;;0.20;0.00;;;12.40;99.90;;;;;;21048241;28;20224;-66
2022/03/14 05:33:48;;;;;;;0.20;0.10;;;12.50;99.90;;;;;;21046789;28;20212;-67
2022/03/14 05:43:53;;;;;;;0.20;0.10;;;12.50;99.90;;;;;;21046330;28;20251;-67
2022/03/14 05:53:56;;;;;;;0.20;0.10;;;12.60;99.90;;;;;;21044111;28;20189;-66
2022/03/14 06:04:02;;;;;;;0.20;0.00;;;12.60;99.90;;;;;;21055633;28;20235;-66
2022/03/14 06:14:06;;;;;;;0.20;0.10;;;12.50;99.90;;;;;;21058483;28;20191;-67
2022/03/14 06:24:11;;;;;;;0.20;0.10;;;12.50;99.90;;;;;;21057449;28;20225;-67
2022/03/14 06:34:15;;;;;;;0.20;0.10;;;12.60;99.90;;;;;;21043860;28;20205;-67
2022/03/14 06:44:21;;;;;;;0.20;0.10;;;12.60;99.90;;;;;;21056936;28;20287;-68
2022/03/14 06:54:29;;;;;;;0.20;0.00;;;12.60;99.90;;;;;;21050435;28;20215;-68
2022/03/14 07:04:36;;;;;;;0.20;0.10;;;12.70;99.90;;;;;;21045525;28;20224;-75
2022/03/14 07:14:40;;;;;;;0.20;0.10;;;12.80;99.90;;;;;;21048246;28;20208;-76
2022/03/14 07:24:47;;;;;;;0.20;0.00;;;13.00;99.90;;;;;;21050182;28;20232;-76
2022/03/14 07:34:50;;;;;;;0.20;0.10;;;12.90;99.90;;;;;;21033475;28;20232;-76
2022/03/14 07:44:56;;;;;;;0.20;0.00;;;13.10;99.90;;;;;;21041414;28;20228;-69
2022/03/14 07:55:00;;;;;;;0.20;0.00;;;13.40;99.90;;;;;;21042823;28;20201;-68
2022/03/14 08:05:06;;;;;;;0.20;0.10;;;13.60;99.90;;;;;;21026440;28;20209;-70
2022/03/14 08:15:10;;;;;;;0.20;0.10;;;13.80;99.90;;;;;;21043764;28;20197;-69
2022/03/14 08:25:15;;;;;;;0.37;0.37;;;14.00;99.90;;;;;;21043622;28;20559;-69
2022/03/14 08:35:20;;;;;;;0.20;0.00;;;14.10;99.90;;;;;;21046025;28;20250;-68
2022/03/14 08:45:27;;;;;;;0.20;0.03;;;14.10;99.90;;;;;;21043745;28;20213;-68
2022/03/14 08:55:31;;;;;;;0.20;0.00;;;14.30;99.90;;;;;;21058577;28;20750;-79
2022/03/14 09:05:37;;;;;;;0.20;0.00;;;14.40;99.90;;;;;;21044254;28;20231;-77
2022/03/14 09:15:41;;;;;;;0.20;0.00;;;14.50;99.90;;;;;;21034622;28;20197;-69
2022/03/14 09:25:46;;;;;;;0.20;0.00;;;14.20;99.90;;;;;;21011901;28;20232;-70
2022/03/14 09:35:50;;;;;;;0.20;0.00;;;14.30;99.90;;;;;;21028520;28;20221;-67
2022/03/14 09:45:58;;;;;;;0.20;0.00;;;14.40;99.90;;;;;;21030528;28;20212;-68
2022/03/14 09:56:02;;;;;;;0.20;0.00;;;14.40;99.90;;;;;;21029408;28;20200;-67
2022/03/14 10:06:07;;;;;;;0.20;0.00;;;14.40;99.90;;;;;;21027188;28;20217;-68
2022/03/14 10:16:11;;;;;;;22.30;20.37;;;14.10;99.90;;;;;;21026017;28;20188;-71
2022/03/14 10:26:18;;;;;;;0.20;0.00;;;13.90;99.90;;;;;;21028872;28;20228;-68
2022/03/14 10:36:39;;;;;;;0.20;0.10;;;13.90;99.90;;;;;;21029985;28;20247;-68
2022/03/14 10:46:45;;;;;;;0.20;0.10;;;13.90;99.90;;;;;;21030383;28;20225;-70
2022/03/14 10:57:06;;;;;;;0.20;0.00;;;14.10;99.90;;;;;;21043019;28;20197;-68
2022/03/14 11:07:12;;;;;;;0.20;0.00;;;14.50;99.90;;;;;;21043205;28;20240;-68
2022/03/14 11:17:18;;;;;;;0.20;0.00;;;14.80;99.90;;;;;;21033494;28;20189;-68
2022/03/14 11:27:26;;;;;;;0.20;0.00;;;14.80;99.90;;;;;;21045224;28;20220;-67
2022/03/14 11:37:31;;;;;;;0.20;0.00;;;15.10;99.90;;;;;;21044888;28;20270;-79
2022/03/14 11:47:38;;;;;;;0.50;0.40;;;15.40;99.90;;;;;;21045850;28;20264;-73
2022/03/14 11:57:43;;;;;;;0.20;0.00;;;15.70;99.90;;;;;;21044389;28;20207;-66
2022/03/14 12:07:49;;;;;;;0.20;0.10;;;16.10;99.90;;;;;;21043355;28;20213;-66
2022/03/14 12:17:53;;;;;;;0.20;0.00;;;16.70;99.90;;;;;;21042964;28;20231;-75
2022/03/14 12:28:24;;;;;;;0.20;0.10;;;16.50;99.90;;;;;;21042582;28;20243;-79
2022/03/14 12:38:28;;;;;;;0.20;0.10;;;16.40;99.90;;;;;;21040692;28;20231;-65
2022/03/14 14:49:41;;;;;;;0.20;0.00;;;15.50;99.90;;;;;;20719460;28;20246;-68
2022/03/14 14:59:45;;;;;;;0.20;0.00;;;15.30;99.90;;;;;;20720439;28;20294;-68
2022/03/14 15:09:50;;;;;;;0.20;0.10;;;15.10;99.90;;;;;;20702474;28;20223;-69
2022/03/14 15:19:55;;;;;;;0.20;0.00;;;15.00;99.90;;;;;;20717420;28;20191;-68
2022/03/14 15:30:00;;;;;;;0.20;0.00;;;15.10;99.90;;;;;;20703048;28;20223;-68
2022/03/14 15:40:06;;;;;;;0.20;0.00;;;15.10;99.90;;;;;;20713961;28;20231;-79
2022/03/14 15:50:14;;;;;;;0.20;0.10;;;15.10;99.90;;;;;;20716465;28;20234;-78
2022/03/14 16:00:20;;;;;;;0.20;0.00;;;14.90;99.90;;;;;;20698550;28;20207;-61
2022/03/14 16:10:25;;;;;;;0.20;0.00;;;14.90;99.90;;;;;;20713540;28;20215;-66
2022/03/14 16:20:30;;;;;;;0.20;0.10;;;14.80;99.90;;;;;;20711936;28;20598;-73
2022/03/14 16:30:35;;;;;;;0.20;0.00;;;14.70;99.90;;;;;;20711479;28;20314;-76
2022/03/14 16:40:39;;;;;;;0.20;0.10;;;14.60;99.90;;;;;;20701174;28;20237;-75
2022/03/14 16:50:45;;;;;;;0.20;0.10;;;14.60;99.90;;;;;;20705990;28;20246;-77
2022/03/14 17:00:49;;;;;;;0.20;0.10;;;14.60;99.90;;;;;;20707844;28;20211;-75
2022/03/14 17:10:54;;;;;;;0.20;0.00;;;14.50;99.90;;;;;;20706699;28;20227;-76
2022/03/14 17:20:59;;;;;;;0.20;0.00;;;14.50;99.90;;;;;;20705585;28;20207;-80
2022/03/14 17:31:04;;;;;;;0.20;0.00;;;14.40;99.90;;;;;;20705535;28;20223;-78
2022/03/14 17:41:08;;;;;;;0.20;0.00;;;14.30;99.90;;;;;;20713229;28;20241;-76
2022/03/14 17:51:14;;;;;;;0.20;0.00;;;14.30;99.90;;;;;;20713857;28;20227;-65
2022/03/14 18:01:18;;;;;;;0.20;0.00;;;14.30;99.90;;;;;;20725377;28;20268;-66
2022/03/14 18:11:24;;;;;;;0.20;0.00;;;14.40;99.90;;;;;;20729273;28;20287;-69
2022/03/14 18:21:27;;;;;;;1.17;0.73;;;14.40;99.90;;;;;;20728758;28;20209;-68
2022/03/14 18:31:32;;;;;;;0.20;0.00;;;14.40;99.90;;;;;;20725886;28;20514;-67
2022/03/14 18:41:47;;;;;;;0.20;0.00;;;14.50;99.90;;;;;;20723615;28;20291;-66
2022/03/14 18:51:52;;;;;;;0.20;0.00;;;14.50;99.90;;;;;;20707125;28;20229;-67
2022/03/14 19:01:58;;;;;;;0.20;0.00;;;14.40;99.90;;;;;;20725931;28;20239;-67
2022/03/14 19:12:04;;;;;;;0.20;0.00;;;14.40;99.90;;;;;;20719943;28;20223;-67
2022/03/14 19:22:09;;;;;;;0.20;0.00;;;14.30;99.90;;;;;;20722731;28;20455;-67
2022/03/14 19:32:14;;;;;;;0.40;0.40;;;14.30;99.90;;;;;;20722002;28;20253;-66
2022/03/14 19:42:19;;;;;;;0.20;0.00;;;14.40;99.90;;;;;;20710565;28;20236;-77
2022/03/14 19:52:24;;;;;;;0.20;0.00;;;14.40;99.90;;;;;;20708409;28;20717;-76
2022/03/14 20:02:29;;;;;;;0.20;0.20;;;14.40;99.90;;;;;;20725250;28;20204;-68
2022/03/14 20:12:34;;;;;;;0.20;0.00;;;14.40;99.90;;;;;;20723307;28;20241;-66
2022/03/14 20:22:38;;;;;;;0.20;0.00;;;14.40;99.90;;;;;;20641582;28;20206;-67
2022/03/14 20:32:44;;;;;;;0.20;0.00;;;14.50;99.90;;;;;;20655694;28;20231;-73
2022/03/14 20:42:52;;;;;;;0.20;0.10;;;14.50;99.90;;;;;;20721124;28;20223;-76
2022/03/14 20:52:57;;;;;;;0.20;0.00;;;14.50;99.90;;;;;;20722117;28;20235;-75
2022/03/14 21:03:08;;;;;;;0.20;0.00;;;14.50;99.90;;;;;;20721326;28;20207;-76
2022/03/14 21:13:22;;;;;;;0.20;0.00;;;14.60;99.90;;;;;;20723425;28;20234;-67
2022/03/14 21:23:26;;;;;;;0.20;0.10;;;14.60;99.90;;;;;;20722585;28;20195;-66
2022/03/14 21:33:33;;;;;;;0.20;0.00;;;14.60;99.90;;;;;;20720958;28;20235;-65
2022/03/14 21:43:37;;;;;;;0.20;0.10;;;14.60;99.90;;;;;;20721598;28;20229;-67
2022/03/14 21:53:43;;;;;;;0.20;0.00;;;14.60;99.90;;;;;;20705476;28;20232;-79
2022/03/14 22:03:50;;;;;;;0.20;0.10;;;14.70;99.90;;;;;;20702105;28;20590;-77
2022/03/14 22:13:59;;;;;;;0.20;0.10;;;14.70;99.90;;;;;;20720396;28;20200;-76
2022/03/14 22:24:03;;;;;;;0.20;0.00;;;14.70;99.90;;;;;;20719813;28;20234;-80
2022/03/14 22:34:08;;;;;;;0.20;0.00;;;14.70;99.90;;;;;;20721477;28;20214;-78
2022/03/14 22:44:12;;;;;;;0.20;0.00;;;14.70;99.90;;;;;;20727304;28;20235;-78
2022/03/14 22:54:20;;;;;;;0.20;0.00;;;14.70;99.90;;;;;;20732463;28;20207;-82
2022/03/14 23:14:46;;;;;;;0.20;0.00;;;14.70;99.90;;;;;;20705206;28;20444;-68
2022/03/14 23:24:50;;;;;;;0.20;0.10;;;14.70;99.90;;;;;;20700678;28;20239;-67
2022/03/14 23:34:55;;;;;;;0.20;0.00;;;14.70;99.90;;;;;;20709842;28;20210;-81
2022/03/14 23:44:59;;;;;;;0.20;0.00;;;14.70;99.90;;;;;;20726359;28;20243;-80
2022/03/14 23:55:06;;;;;;;0.20;0.00;;;14.70;99.90;;;;;;20726349;28;20509;-82
